Time;durP1;ratioP1;P1;durP2;ratioP2;P2;SDS_P1;SDS_P2;PMS_P1;PMS_P2;Temp;Humidity;BMP_temperature;BMP_pressure;BME280_temperature;BME280_humidity;BME280_pressure;Samples;Min_cycle;Max_cycle;Signal;HPM_P1;HPM_P2
2022/12/08 00:01:17;;;;;;;5.10;2.30;;;;;;;;;;4999137;28;20476;-82
2022/12/08 00:03:43;;;;;;;5.18;2.08;;;;;;;;;;4981634;28;20492;-81
2022/12/08 00:09:40;;;;;;;3.35;1.75;;;;;;;;;;4999527;28;20035;-81
2022/12/08 00:12:09;;;;;;;5.47;2.15;;;;;;;;;;4999437;28;20113;-79
2022/12/08 00:14:39;;;;;;;3.83;2.05;;;;;;;;;;4998653;28;20033;-81
2022/12/08 00:17:06;;;;;;;5.38;2.45;;;;;;;;;;4981051;28;20022;-81
2022/12/08 00:19:32;;;;;;;6.40;2.13;;;;;;;;;;4998053;28;20019;-80
2022/12/08 00:21:58;;;;;;;4.30;2.13;;;;;;;;;;4980316;28;20026;-81
2022/12/08 00:24:32;;;;;;;3.78;2.00;;;;;;;;;;4980995;28;20126;-81
2022/12/08 00:26:57;;;;;;;;;;;;;;;;;;4999076;28;20026;-81
2022/12/08 00:29:22;;;;;;;5.45;1.98;;;;;;;;;;4998375;28;20371;-81
2022/12/08 00:31:47;;;;;;;7.93;2.22;;;;;;;;;;4998945;28;20022;-81
2022/12/08 00:34:14;;;;;;;2.80;1.65;;;;;;;;;;4998407;28;20476;-81
2022/12/08 00:36:40;;;;;;;4.03;2.05;;;;;;;;;;4997504;28;20038;-81
2022/12/08 00:39:06;;;;;;;5.70;2.35;;;;;;;;;;4981326;28;20057;-80
2022/12/08 00:44:19;;;;;;;3.22;2.20;;;;;;;;;;4998595;28;20049;-81
2022/12/08 00:46:45;;;;;;;5.80;2.40;;;;;;;;;;4997865;28;20030;-80
2022/12/08 00:49:11;;;;;;;6.53;2.30;;;;;;;;;;4980374;28;20499;-81
2022/12/08 00:51:37;;;;;;;5.68;2.22;;;;;;;;;;4980913;28;20541;-83
2022/12/08 00:54:03;;;;;;;4.38;2.35;;;;;;;;;;4998777;28;20108;-82
2022/12/08 00:56:29;;;;;;;8.05;2.33;;;;;;;;;;4997940;28;20032;-83
2022/12/08 00:58:54;;;;;;;7.55;2.33;;;;;;;;;;4998247;28;20395;-85
2022/12/08 01:01:20;;;;;;;7.95;2.40;;;;;;;;;;4999175;28;20523;-82
2022/12/08 01:03:45;;;;;;;7.90;2.40;;;;;;;;;;4998676;28;20038;-83
2022/12/08 01:06:10;;;;;;;4.63;2.30;;;;;;;;;;4999608;28;20023;-80
2022/12/08 01:08:36;;;;;;;4.80;2.05;;;;;;;;;;4999282;28;20451;-81
2022/12/08 01:11:03;;;;;;;6.40;2.17;;;;;;;;;;4981324;28;20034;-82
2022/12/08 01:13:28;;;;;;;4.57;2.20;;;;;;;;;;4999573;28;20030;-82
2022/12/08 01:15:53;;;;;;;5.05;2.63;;;;;;;;;;4981522;28;20394;-81
2022/12/08 01:18:18;;;;;;;8.48;2.10;;;;;;;;;;4998686;28;20054;-83
2022/12/08 01:20:43;;;;;;;5.82;2.63;;;;;;;;;;4998940;28;20034;-82
2022/12/08 01:23:09;;;;;;;5.90;2.22;;;;;;;;;;4981806;28;20026;-81
2022/12/08 01:25:34;;;;;;;8.48;2.28;;;;;;;;;;4981741;28;20026;-82
2022/12/08 01:27:59;;;;;;;6.30;2.17;;;;;;;;;;4998558;28;20053;-81
2022/12/08 01:30:25;;;;;;;4.45;2.28;;;;;;;;;;4981089;28;20049;-81
2022/12/08 01:32:50;;;;;;;5.88;2.30;;;;;;;;;;4980858;28;20431;-82
2022/12/08 01:35:15;;;;;;;10.10;2.20;;;;;;;;;;4998796;28;20022;-83
2022/12/08 01:37:40;;;;;;;8.60;2.67;;;;;;;;;;4998471;28;20040;-81
2022/12/08 01:40:06;;;;;;;3.55;2.08;;;;;;;;;;4980818;28;20431;-83
2022/12/08 01:42:33;;;;;;;4.47;2.50;;;;;;;;;;4998311;28;20030;-81
2022/12/08 01:45:05;;;;;;;5.57;2.33;;;;;;;;;;4999219;28;20456;-83
2022/12/08 01:47:38;;;;;;;5.78;2.45;;;;;;;;;;4998412;28;20365;-82
2022/12/08 01:50:06;;;;;;;7.30;2.13;;;;;;;;;;4980418;28;20475;-80
2022/12/08 01:52:37;;;;;;;5.28;2.10;;;;;;;;;;4980176;28;20053;-82
2022/12/08 01:55:09;;;;;;;6.15;2.38;;;;;;;;;;4980713;28;20026;-81
2022/12/08 01:57:45;;;;;;;5.45;2.10;;;;;;;;;;4997801;28;20038;-81
2022/12/08 02:00:14;;;;;;;4.70;2.22;;;;;;;;;;4998195;28;20026;-81
2022/12/08 02:03:00;;;;;;;5.75;2.33;;;;;;;;;;4997315;28;20032;-81
2022/12/08 02:05:29;;;;;;;5.47;2.20;;;;;;;;;;4980095;28;20032;-80
2022/12/08 02:07:56;;;;;;;8.73;2.70;;;;;;;;;;4980508;28;20029;-82
2022/12/08 02:10:23;;;;;;;3.63;2.30;;;;;;;;;;4997322;28;20041;-82
2022/12/08 02:12:51;;;;;;;4.70;2.45;;;;;;;;;;4980536;28;20468;-84
2022/12/08 02:15:17;;;;;;;5.15;2.40;;;;;;;;;;4997858;28;20405;-81
2022/12/08 02:18:09;;;;;;;3.97;2.42;;;;;;;;;;4998083;28;20025;-82
2022/12/08 02:20:34;;;;;;;7.18;2.45;;;;;;;;;;4998149;28;20061;-82
2022/12/08 02:23:30;;;;;;;6.53;2.47;;;;;;;;;;4999010;28;20027;-81
2022/12/08 02:26:32;;;;;;;5.82;2.28;;;;;;;;;;4980571;28;20673;-81
2022/12/08 02:29:26;;;;;;;6.63;2.17;;;;;;;;;;4980625;28;20450;-81
2022/12/08 02:32:01;;;;;;;4.23;2.23;;;;;;;;;;4984260;28;20491;-81
2022/12/08 02:34:43;;;;;;;6.38;2.28;;;;;;;;;;5001327;28;20030;-81
2022/12/08 02:37:22;;;;;;;5.38;2.60;;;;;;;;;;4982663;28;20094;-82
2022/12/08 02:40:05;;;;;;;6.97;2.22;;;;;;;;;;5006508;28;20026;-80
2022/12/08 02:42:40;;;;;;;5.95;2.38;;;;;;;;;;4992315;28;20045;-80
2022/12/08 02:45:13;;;;;;;7.10;2.35;;;;;;;;;;4991351;28;20511;-81
2022/12/08 02:47:39;;;;;;;9.40;2.90;;;;;;;;;;5010279;28;20030;-80
2022/12/08 02:50:06;;;;;;;8.85;3.05;;;;;;;;;;5008422;28;20030;-79
2022/12/08 02:52:31;;;;;;;7.13;3.05;;;;;;;;;;4990938;28;20050;-79
2022/12/08 02:55:08;;;;;;;5.67;2.87;;;;;;;;;;5005944;28;20049;-80
2022/12/08 02:57:54;;;;;;;5.72;2.70;;;;;;;;;;5001181;28;20287;-81
2022/12/08 03:00:23;;;;;;;4.20;2.40;;;;;;;;;;4982849;28;20403;-83
2022/12/08 03:03:14;;;;;;;7.50;2.67;;;;;;;;;;5000507;28;20060;-82
2022/12/08 03:06:08;;;;;;;5.68;2.80;;;;;;;;;;5000335;28;20058;-82
2022/12/08 03:08:40;;;;;;;5.45;2.60;;;;;;;;;;5000126;28;20042;-81
2022/12/08 03:11:19;;;;;;;5.10;2.60;;;;;;;;;;4982764;28;20034;-81
2022/12/08 03:13:47;;;;;;;6.45;2.58;;;;;;;;;;4999782;28;20046;-80
2022/12/08 03:16:18;;;;;;;6.55;2.90;;;;;;;;;;5000445;28;20109;-82
2022/12/08 03:18:49;;;;;;;4.95;2.70;;;;;;;;;;4999928;28;20027;-80
2022/12/08 03:21:18;;;;;;;5.50;2.53;;;;;;;;;;5000468;28;20030;-83
2022/12/08 03:23:45;;;;;;;4.72;2.45;;;;;;;;;;4982796;28;20049;-80
2022/12/08 03:26:17;;;;;;;3.67;2.53;;;;;;;;;;5000631;28;20026;-81
2022/12/08 03:28:42;;;;;;;6.13;2.42;;;;;;;;;;4982638;28;20026;-81
2022/12/08 03:31:12;;;;;;;7.75;2.80;;;;;;;;;;4999621;28;20022;-83
2022/12/08 03:33:42;;;;;;;4.20;2.47;;;;;;;;;;5000502;28;20030;-81
2022/12/08 03:36:09;;;;;;;5.38;2.92;;;;;;;;;;4983321;28;20030;-82
2022/12/08 03:38:43;;;;;;;4.90;2.47;;;;;;;;;;5000206;28;20022;-81
2022/12/08 03:41:18;;;;;;;6.75;2.58;;;;;;;;;;4983468;28;20065;-83
2022/12/08 03:43:48;;;;;;;6.60;2.55;;;;;;;;;;4983492;28;20491;-82
2022/12/08 03:46:15;;;;;;;5.38;2.20;;;;;;;;;;5001397;28;20064;-82
2022/12/08 03:48:41;;;;;;;4.95;2.50;;;;;;;;;;5001083;28;20033;-82
2022/12/08 03:51:07;;;;;;;4.80;2.70;;;;;;;;;;4982796;28;20117;-83
2022/12/08 03:53:32;;;;;;;4.32;2.60;;;;;;;;;;4983077;28;20113;-81
2022/12/08 03:55:57;;;;;;;4.82;2.78;;;;;;;;;;5000755;28;20495;-83
2022/12/08 03:58:23;;;;;;;6.68;2.90;;;;;;;;;;5001322;28;20058;-81
2022/12/08 04:00:48;;;;;;;4.28;2.63;;;;;;;;;;4983094;28;20117;-81
2022/12/08 04:03:13;;;;;;;5.63;2.70;;;;;;;;;;4983520;28;20109;-81
2022/12/08 04:05:38;;;;;;;8.75;2.92;;;;;;;;;;5000901;28;20531;-81
2022/12/08 04:08:04;;;;;;;5.30;2.38;;;;;;;;;;5000827;28;20022;-82
2022/12/08 04:10:29;;;;;;;5.05;2.50;;;;;;;;;;4982211;28;20611;-82
2022/12/08 04:12:55;;;;;;;7.15;2.47;;;;;;;;;;5000273;28;20025;-82
2022/12/08 04:15:21;;;;;;;4.60;2.67;;;;;;;;;;4999440;28;20081;-82
2022/12/08 04:17:46;;;;;;;3.53;2.38;;;;;;;;;;4999829;28;20026;-82
2022/12/08 04:20:11;;;;;;;6.30;2.75;;;;;;;;;;4999629;28;20021;-83
2022/12/08 04:22:37;;;;;;;4.40;2.67;;;;;;;;;;4999891;28;20049;-83
2022/12/08 04:25:02;;;;;;;8.05;3.00;;;;;;;;;;4999923;28;20040;-82
2022/12/08 04:27:28;;;;;;;6.35;3.40;;;;;;;;;;4999392;28;20368;-82
2022/12/08 04:29:54;;;;;;;5.53;2.90;;;;;;;;;;4999343;28;20105;-83
2022/12/08 04:32:19;;;;;;;6.80;3.17;;;;;;;;;;5000047;28;20027;-81
2022/12/08 04:34:44;;;;;;;6.00;3.40;;;;;;;;;;4981836;28;20118;-82
2022/12/08 04:37:09;;;;;;;6.30;3.05;;;;;;;;;;4999488;28;20018;-81
2022/12/08 04:39:35;;;;;;;6.53;3.10;;;;;;;;;;4999126;28;20048;-82
2022/12/08 04:42:00;;;;;;;6.43;3.65;;;;;;;;;;4981706;28;20026;-81
2022/12/08 04:44:25;;;;;;;6.32;3.45;;;;;;;;;;4982332;28;20090;-82
2022/12/08 04:46:50;;;;;;;4.93;2.88;;;;;;;;;;4982337;28;20042;-82
2022/12/08 04:49:16;;;;;;;9.10;4.15;;;;;;;;;;4982420;28;20093;-81
2022/12/08 04:51:41;;;;;;;14.00;4.53;;;;;;;;;;4981476;28;20034;-82
2022/12/08 04:54:07;;;;;;;9.35;4.00;;;;;;;;;;4999155;28;20488;-82
2022/12/08 04:56:32;;;;;;;10.70;4.80;;;;;;;;;;4998511;28;20109;-82
2022/12/08 04:58:57;;;;;;;6.95;3.45;;;;;;;;;;4998500;28;20030;-81
2022/12/08 05:01:22;;;;;;;9.20;3.75;;;;;;;;;;4981332;28;20026;-81
2022/12/08 05:03:48;;;;;;;9.63;3.45;;;;;;;;;;4998607;28;20384;-82
2022/12/08 05:06:13;;;;;;;7.63;3.35;;;;;;;;;;4982116;28;20022;-82
2022/12/08 05:08:39;;;;;;;12.95;3.38;;;;;;;;;;4998963;28;20018;-81
2022/12/08 05:11:07;;;;;;;8.57;3.60;;;;;;;;;;4981228;28;20124;-80
2022/12/08 05:13:32;;;;;;;4.75;2.97;;;;;;;;;;4981503;28;20084;-82
2022/12/08 05:16:09;;;;;;;5.22;3.20;;;;;;;;;;4999568;28;20452;-82
2022/12/08 05:18:35;;;;;;;4.80;3.08;;;;;;;;;;4999251;28;20033;-82
2022/12/08 05:21:01;;;;;;;7.53;3.45;;;;;;;;;;4998205;28;20027;-82
2022/12/08 05:23:27;;;;;;;6.95;3.38;;;;;;;;;;4999170;28;20430;-82
2022/12/08 05:25:52;;;;;;;5.05;2.88;;;;;;;;;;4981221;28;20026;-81
2022/12/08 05:28:18;;;;;;;5.20;3.22;;;;;;;;;;4998532;28;20445;-83
2022/12/08 05:30:43;;;;;;;7.28;3.67;;;;;;;;;;4980913;28;20046;-84
2022/12/08 05:33:10;;;;;;;5.95;3.33;;;;;;;;;;4998404;28;20046;-82
2022/12/08 05:35:35;;;;;;;5.70;3.33;;;;;;;;;;4998509;28;20361;-82
2022/12/08 05:38:00;;;;;;;5.35;3.40;;;;;;;;;;4999016;28;20033;-82
2022/12/08 05:40:26;;;;;;;5.93;3.85;;;;;;;;;;4981915;28;20030;-82
2022/12/08 05:42:51;;;;;;;7.57;3.92;;;;;;;;;;4998332;28;20040;-81
2022/12/08 05:45:17;;;;;;;12.50;5.88;;;;;;;;;;4998744;28;20053;-82
2022/12/08 05:47:42;;;;;;;10.90;5.45;;;;;;;;;;4998270;28;20039;-81
2022/12/08 05:50:08;;;;;;;9.60;5.28;;;;;;;;;;4998294;28;20027;-79
2022/12/08 05:52:33;;;;;;;10.88;5.45;;;;;;;;;;4980848;28;20022;-83
2022/12/08 05:54:59;;;;;;;11.73;5.20;;;;;;;;;;4982278;28;20032;-83
2022/12/08 05:57:24;;;;;;;11.50;4.78;;;;;;;;;;5000030;28;20030;-83
2022/12/08 05:59:49;;;;;;;7.63;4.28;;;;;;;;;;4998909;28;20143;-83
2022/12/08 06:02:14;;;;;;;8.32;4.28;;;;;;;;;;4981223;28;20026;-83
2022/12/08 06:04:40;;;;;;;7.47;3.92;;;;;;;;;;4999103;28;20057;-82
2022/12/08 06:07:07;;;;;;;7.53;3.85;;;;;;;;;;5001634;28;20026;-81
2022/12/08 06:09:32;;;;;;;8.23;3.90;;;;;;;;;;5001793;28;20053;-82
2022/12/08 06:11:57;;;;;;;5.25;3.53;;;;;;;;;;5002139;28;20022;-81
2022/12/08 06:14:23;;;;;;;6.82;3.70;;;;;;;;;;5001143;28;20058;-83
2022/12/08 06:16:48;;;;;;;5.90;3.97;;;;;;;;;;4983176;28;20041;-82
2022/12/08 06:19:14;;;;;;;5.68;3.20;;;;;;;;;;4983233;28;20046;-82
2022/12/08 06:21:39;;;;;;;6.25;3.70;;;;;;;;;;5000944;28;20022;-82
2022/12/08 06:24:05;;;;;;;6.78;3.45;;;;;;;;;;4983346;28;20026;-82
2022/12/08 06:26:30;;;;;;;6.45;3.88;;;;;;;;;;5001731;28;20053;-81
2022/12/08 06:28:55;;;;;;;6.93;3.83;;;;;;;;;;5001305;28;20022;-80
2022/12/08 06:31:23;;;;;;;6.80;3.63;;;;;;;;;;5000368;28;20450;-82
2022/12/08 06:33:49;;;;;;;6.32;4.05;;;;;;;;;;5002189;28;20392;-83
2022/12/08 06:36:16;;;;;;;7.50;3.90;;;;;;;;;;5002136;28;20033;-83
2022/12/08 06:38:41;;;;;;;8.18;4.28;;;;;;;;;;5001403;28;20026;-81
2022/12/08 06:41:07;;;;;;;7.38;4.10;;;;;;;;;;4983862;28;20141;-82
2022/12/08 06:43:32;;;;;;;6.32;3.97;;;;;;;;;;4983482;28;20495;-82
2022/12/08 06:45:58;;;;;;;7.78;4.57;;;;;;;;;;5001110;28;20033;-81
2022/12/08 06:48:24;;;;;;;6.75;3.88;;;;;;;;;;4983026;28;20057;-82
2022/12/08 06:50:49;;;;;;;7.82;4.53;;;;;;;;;;5000224;28;20030;-82
2022/12/08 06:53:15;;;;;;;6.82;3.63;;;;;;;;;;4999718;28;20038;-81
2022/12/08 06:55:45;;;;;;;6.00;3.70;;;;;;;;;;4999960;28;20061;-81
2022/12/08 06:58:11;;;;;;;7.40;4.28;;;;;;;;;;5000197;28;20034;-82
2022/12/08 07:00:37;;;;;;;7.32;3.78;;;;;;;;;;4982719;28;20053;-82
2022/12/08 07:03:02;;;;;;;6.90;3.65;;;;;;;;;;5000115;28;20026;-81
2022/12/08 07:05:28;;;;;;;6.28;3.80;;;;;;;;;;4999889;28;20033;-82
2022/12/08 07:07:53;;;;;;;7.38;4.38;;;;;;;;;;4999924;28;20026;-82
2022/12/08 07:10:18;;;;;;;7.25;3.92;;;;;;;;;;5000596;28;20026;-83
2022/12/08 07:12:44;;;;;;;6.35;3.65;;;;;;;;;;5000247;28;20545;-82
2022/12/08 07:15:09;;;;;;;9.68;3.85;;;;;;;;;;4999716;28;20034;-82
2022/12/08 07:17:34;;;;;;;9.43;4.57;;;;;;;;;;5000097;28;20034;-83
2022/12/08 07:20:00;;;;;;;14.52;5.63;;;;;;;;;;5000566;28;20073;-83
2022/12/08 07:22:25;;;;;;;13.27;5.28;;;;;;;;;;5000494;28;20029;-82
2022/12/08 07:24:50;;;;;;;13.18;5.28;;;;;;;;;;5000524;28;20030;-82
2022/12/08 07:27:16;;;;;;;13.43;5.55;;;;;;;;;;4999555;28;20058;-82
2022/12/08 07:29:41;;;;;;;10.45;4.78;;;;;;;;;;4999955;28;20022;-82
2022/12/08 07:32:07;;;;;;;8.52;3.95;;;;;;;;;;5001411;28;20033;-83
2022/12/08 07:34:32;;;;;;;8.70;4.32;;;;;;;;;;4982628;28;20049;-82
2022/12/08 07:36:57;;;;;;;17.58;5.70;;;;;;;;;;4982775;28;20022;-82
2022/12/08 07:39:22;;;;;;;9.30;4.05;;;;;;;;;;5000968;28;20387;-82
2022/12/08 07:41:48;;;;;;;9.20;4.47;;;;;;;;;;4999866;28;20068;-82
2022/12/08 07:44:13;;;;;;;8.80;4.22;;;;;;;;;;4999801;28;20018;-82
2022/12/08 07:46:38;;;;;;;8.15;4.10;;;;;;;;;;4999325;28;20034;-82
2022/12/08 07:49:03;;;;;;;7.40;3.38;;;;;;;;;;4982413;28;20053;-82
2022/12/08 07:51:29;;;;;;;5.70;3.40;;;;;;;;;;5000360;28;20041;-83
2022/12/08 07:53:54;;;;;;;6.72;3.65;;;;;;;;;;5000525;28;20500;-82
2022/12/08 07:56:20;;;;;;;7.40;3.80;;;;;;;;;;4982804;28;20022;-82
2022/12/08 07:58:46;;;;;;;10.55;3.80;;;;;;;;;;4999878;28;20027;-82
2022/12/08 08:01:18;;;;;;;7.72;3.80;;;;;;;;;;4981832;28;20029;-83
2022/12/08 08:03:43;;;;;;;6.18;3.97;;;;;;;;;;5000859;28;20026;-82
2022/12/08 08:06:09;;;;;;;8.82;4.93;;;;;;;;;;4982225;28;20026;-82
2022/12/08 08:08:37;;;;;;;7.10;4.28;;;;;;;;;;4999797;28;20058;-84
2022/12/08 08:11:05;;;;;;;7.75;4.80;;;;;;;;;;4999211;28;20029;-83
2022/12/08 08:13:30;;;;;;;9.50;4.72;;;;;;;;;;4999610;28;20484;-81
2022/12/08 08:16:07;;;;;;;6.65;4.07;;;;;;;;;;5000753;28;20117;-81
2022/12/08 08:18:34;;;;;;;7.57;3.80;;;;;;;;;;4999210;28;20022;-82
2022/12/08 08:20:59;;;;;;;6.38;3.50;;;;;;;;;;4997562;28;20040;-82
2022/12/08 08:23:24;;;;;;;5.95;3.85;;;;;;;;;;4980304;28;20089;-81
2022/12/08 08:25:50;;;;;;;6.50;3.72;;;;;;;;;;4981740;28;20062;-82
2022/12/08 08:28:15;;;;;;;6.75;3.95;;;;;;;;;;4997006;28;20061;-81
2022/12/08 08:30:40;;;;;;;7.45;4.05;;;;;;;;;;4981091;28;20031;-86
2022/12/08 08:33:06;;;;;;;5.15;3.60;;;;;;;;;;4998839;28;20499;-83
2022/12/08 08:35:32;;;;;;;6.40;3.67;;;;;;;;;;4999132;28;20030;-82
2022/12/08 08:37:58;;;;;;;7.20;4.15;;;;;;;;;;4981278;28;20028;-84
2022/12/08 08:40:23;;;;;;;8.50;4.40;;;;;;;;;;4982187;28;20081;-83
2022/12/08 08:42:48;;;;;;;7.28;3.95;;;;;;;;;;5001228;28;20449;-82
2022/12/08 08:45:14;;;;;;;6.10;3.42;;;;;;;;;;4982202;28;20037;-83
2022/12/08 08:47:39;;;;;;;6.25;3.67;;;;;;;;;;4999340;28;20037;-83
2022/12/08 08:50:05;;;;;;;7.10;3.97;;;;;;;;;;4999531;28;20031;-83
2022/12/08 08:52:30;;;;;;;6.85;3.83;;;;;;;;;;4999681;28;20034;-84
2022/12/08 08:54:56;;;;;;;6.80;4.25;;;;;;;;;;4981887;28;20036;-83
2022/12/08 08:57:21;;;;;;;6.53;4.35;;;;;;;;;;4999285;28;20080;-83
2022/12/08 08:59:46;;;;;;;6.22;3.78;;;;;;;;;;4982631;28;20077;-83
2022/12/08 09:02:17;;;;;;;7.53;4.07;;;;;;;;;;4966714;28;20101;-82
2022/12/08 09:04:42;;;;;;;7.35;4.43;;;;;;;;;;4999437;28;20049;-83
2022/12/08 09:07:08;;;;;;;8.23;4.07;;;;;;;;;;4998700;28;20038;-82
2022/12/08 09:09:33;;;;;;;6.13;3.83;;;;;;;;;;4999034;28;20037;-82
2022/12/08 09:11:58;;;;;;;6.93;3.95;;;;;;;;;;4998536;28;20029;-83
2022/12/08 09:14:24;;;;;;;7.00;4.22;;;;;;;;;;4999098;28;20029;-82
2022/12/08 09:16:50;;;;;;;5.85;3.90;;;;;;;;;;4998186;28;20034;-82
2022/12/08 09:19:15;;;;;;;10.57;4.38;;;;;;;;;;4998391;28;20073;-83
2022/12/08 09:21:40;;;;;;;5.82;4.03;;;;;;;;;;4998459;28;20030;-82
2022/12/08 09:24:07;;;;;;;6.68;4.55;;;;;;;;;;4981621;28;20033;-83
2022/12/08 09:26:32;;;;;;;10.20;4.75;;;;;;;;;;4998328;28;20028;-84
2022/12/08 09:28:58;;;;;;;10.10;3.92;;;;;;;;;;4996669;28;20477;-83
2022/12/08 09:31:23;;;;;;;9.82;4.68;;;;;;;;;;4997492;28;20026;-83
2022/12/08 09:33:52;;;;;;;6.40;3.83;;;;;;;;;;4980745;28;20081;-82
2022/12/08 09:36:17;;;;;;;9.35;4.28;;;;;;;;;;4980027;28;20031;-84
2022/12/08 09:38:43;;;;;;;7.25;4.28;;;;;;;;;;4999273;28;20033;-84
2022/12/08 09:41:48;;;;;;;7.30;4.38;;;;;;;;;;4983990;28;20108;-83
2022/12/08 09:44:32;;;;;;;7.35;3.88;;;;;;;;;;5001101;28;20149;-84
2022/12/08 09:47:00;;;;;;;6.35;3.67;;;;;;;;;;4982688;28;20173;-82
2022/12/08 09:49:40;;;;;;;6.40;3.90;;;;;;;;;;4982768;28;20033;-83
2022/12/08 09:52:18;;;;;;;7.32;4.45;;;;;;;;;;4999988;28;20499;-83
2022/12/08 09:54:44;;;;;;;7.07;3.95;;;;;;;;;;4983694;28;20094;-83
2022/12/08 09:57:14;;;;;;;5.70;3.38;;;;;;;;;;5004838;28;20111;-82
2022/12/08 09:59:46;;;;;;;5.60;3.55;;;;;;;;;;5009705;28;20032;-82
2022/12/08 10:02:21;;;;;;;6.60;3.40;;;;;;;;;;5005121;28;20030;-83
2022/12/08 10:04:46;;;;;;;8.48;3.97;;;;;;;;;;5002891;28;20037;-83
2022/12/08 10:07:16;;;;;;;5.85;3.72;;;;;;;;;;5003156;28;20022;-82
2022/12/08 10:09:59;;;;;;;6.03;3.35;;;;;;;;;;4986075;28;20026;-83
2022/12/08 10:12:46;;;;;;;7.60;3.78;;;;;;;;;;5004081;28;20050;-83
2022/12/08 10:15:38;;;;;;;5.57;3.58;;;;;;;;;;4986675;28;20031;-83
2022/12/08 10:18:11;;;;;;;6.35;3.63;;;;;;;;;;4986445;28;20440;-83
2022/12/08 10:20:40;;;;;;;5.18;3.70;;;;;;;;;;4987298;28;20026;-84
2022/12/08 10:23:11;;;;;;;7.40;3.63;;;;;;;;;;5005083;28;20434;-82
2022/12/08 10:25:44;;;;;;;5.53;3.33;;;;;;;;;;4986894;28;20069;-83
2022/12/08 10:28:10;;;;;;;4.30;2.73;;;;;;;;;;5003149;28;20033;-83
2022/12/08 10:30:35;;;;;;;4.53;2.78;;;;;;;;;;5002816;28;20337;-83
2022/12/08 10:33:01;;;;;;;6.28;3.20;;;;;;;;;;5003163;28;20049;-83
2022/12/08 10:35:42;;;;;;;6.55;2.83;;;;;;;;;;4986156;28;20026;-82
2022/12/08 10:38:29;;;;;;;6.45;3.22;;;;;;;;;;5004789;28;20030;-84
2022/12/08 10:41:05;;;;;;;5.40;2.90;;;;;;;;;;5003228;28;20345;-83
2022/12/08 10:43:31;;;;;;;6.35;2.75;;;;;;;;;;5002002;28;20034;-83
2022/12/08 10:46:13;;;;;;;9.07;4.28;;;;;;;;;;4985085;28;20057;-83
2022/12/08 10:48:47;;;;;;;13.00;4.97;;;;;;;;;;5001913;28;20029;-83
2022/12/08 10:51:35;;;;;;;6.25;3.60;;;;;;;;;;5000623;28;20038;-83
2022/12/08 10:54:00;;;;;;;7.50;3.75;;;;;;;;;;5001173;28;20066;-83
2022/12/08 10:56:28;;;;;;;7.35;3.80;;;;;;;;;;5001188;28;20034;-82
2022/12/08 10:59:10;;;;;;;7.15;3.17;;;;;;;;;;5002475;28;20061;-84
2022/12/08 11:01:38;;;;;;;11.02;4.32;;;;;;;;;;4985569;28;20030;-83
2022/12/08 11:04:18;;;;;;;9.90;4.05;;;;;;;;;;5002729;28;20061;-84
2022/12/08 11:06:44;;;;;;;5.38;3.20;;;;;;;;;;5002957;28;20022;-85
2022/12/08 11:09:16;;;;;;;10.50;4.40;;;;;;;;;;5003052;28;20195;-85
2022/12/08 11:11:46;;;;;;;7.53;4.00;;;;;;;;;;5002933;28;20033;-85
2022/12/08 11:14:37;;;;;;;14.48;5.40;;;;;;;;;;5003197;28;20491;-85
2022/12/08 11:17:12;;;;;;;6.85;3.33;;;;;;;;;;4990125;28;20057;-84
2022/12/08 11:20:02;;;;;;;5.32;3.35;;;;;;;;;;4990687;28;20042;-84
2022/12/08 11:22:38;;;;;;;6.03;3.05;;;;;;;;;;4995123;28;20030;-85
2022/12/08 11:25:06;;;;;;;5.13;2.92;;;;;;;;;;5003225;28;20080;-83
2022/12/08 11:27:35;;;;;;;3.40;2.67;;;;;;;;;;5003527;28;20023;-83
2022/12/08 11:30:01;;;;;;;3.80;2.38;;;;;;;;;;5003736;28;20026;-83
2022/12/08 11:32:27;;;;;;;4.10;2.72;;;;;;;;;;5004252;28;20033;-85
2022/12/08 11:34:58;;;;;;;3.80;2.50;;;;;;;;;;4984707;28;20109;-83
2022/12/08 11:37:39;;;;;;;4.90;2.55;;;;;;;;;;5001258;28;20446;-83
2022/12/08 11:40:28;;;;;;;7.63;2.65;;;;;;;;;;5001570;28;20023;-83
2022/12/08 11:43:23;;;;;;;5.15;2.80;;;;;;;;;;5000929;28;20504;-84
2022/12/08 11:45:54;;;;;;;3.47;2.50;;;;;;;;;;4990253;28;20524;-83
2022/12/08 11:48:44;;;;;;;3.80;2.15;;;;;;;;;;4984651;28;20023;-82
2022/12/08 11:51:12;;;;;;;3.60;2.55;;;;;;;;;;5005356;28;20112;-81
2022/12/08 11:53:46;;;;;;;3.15;2.03;;;;;;;;;;5010319;28;20045;-83
2022/12/08 11:56:42;;;;;;;4.95;2.22;;;;;;;;;;5006766;28;20080;-83
2022/12/08 11:59:41;;;;;;;4.22;2.05;;;;;;;;;;5003545;28;20061;-84
2022/12/08 12:02:13;;;;;;;4.28;2.60;;;;;;;;;;5002406;28;20105;-84
2022/12/08 12:04:46;;;;;;;8.10;2.20;;;;;;;;;;4984057;28;20029;-84
2022/12/08 12:07:11;;;;;;;3.25;2.08;;;;;;;;;;5000200;28;20025;-84
2022/12/08 12:09:50;;;;;;;3.88;2.60;;;;;;;;;;5000812;28;20439;-83
2022/12/08 12:12:37;;;;;;;5.15;2.70;;;;;;;;;;5000111;28;20030;-82
2022/12/08 12:15:43;;;;;;;4.78;2.40;;;;;;;;;;5000791;28;20132;-83
2022/12/08 12:18:19;;;;;;;4.13;2.20;;;;;;;;;;4999733;28;20026;-83
2022/12/08 12:21:11;;;;;;;6.10;2.28;;;;;;;;;;4981681;28;20018;-85
2022/12/08 12:23:43;;;;;;;3.70;2.20;;;;;;;;;;4999676;28;20033;-83
2022/12/08 12:26:23;;;;;;;2.92;2.00;;;;;;;;;;4982728;28;20484;-84
2022/12/08 12:28:55;;;;;;;5.82;2.10;;;;;;;;;;5000164;28;20022;-83
2022/12/08 12:31:24;;;;;;;3.72;2.10;;;;;;;;;;5000020;28;20026;-82
2022/12/08 12:33:50;;;;;;;3.30;1.90;;;;;;;;;;4999887;28;20101;-83
2022/12/08 12:36:16;;;;;;;5.20;2.70;;;;;;;;;;4999412;28;20026;-83
2022/12/08 12:38:59;;;;;;;2.97;2.17;;;;;;;;;;5000920;28;20029;-83
2022/12/08 12:41:30;;;;;;;3.40;1.85;;;;;;;;;;4983150;28;20026;-82
2022/12/08 12:44:10;;;;;;;2.55;1.75;;;;;;;;;;4999296;28;20027;-84
2022/12/08 12:46:40;;;;;;;4.38;1.70;;;;;;;;;;5000034;28;20030;-84
2022/12/08 12:49:51;;;;;;;1.83;1.42;;;;;;;;;;4982519;28;20371;-83
2022/12/08 12:52:17;;;;;;;2.92;2.10;;;;;;;;;;4976668;28;20042;-83
2022/12/08 12:54:48;;;;;;;3.47;2.05;;;;;;;;;;4999562;28;20089;-83
2022/12/08 12:57:21;;;;;;;3.05;2.17;;;;;;;;;;4981392;28;20499;-85
2022/12/08 13:00:06;;;;;;;4.43;2.10;;;;;;;;;;4999834;28;20019;-84
2022/12/08 13:02:44;;;;;;;4.32;2.17;;;;;;;;;;4998108;28;20022;-85
2022/12/08 13:05:26;;;;;;;3.00;2.00;;;;;;;;;;4997267;28;20116;-84
2022/12/08 13:08:00;;;;;;;4.93;2.30;;;;;;;;;;4997585;28;20026;-82
2022/12/08 13:10:33;;;;;;;3.60;2.20;;;;;;;;;;4979378;28;20030;-83
2022/12/08 13:13:16;;;;;;;5.40;2.42;;;;;;;;;;4980118;28;20399;-83
2022/12/08 13:15:45;;;;;;;4.43;2.50;;;;;;;;;;4981269;28;20023;-82
2022/12/08 13:18:35;;;;;;;4.28;2.42;;;;;;;;;;4981720;28;20045;-83
2022/12/08 13:21:15;;;;;;;4.82;2.60;;;;;;;;;;4999050;28;20033;-84
2022/12/08 13:23:45;;;;;;;3.72;2.17;;;;;;;;;;4999390;28;20039;-83
2022/12/08 13:26:17;;;;;;;2.50;1.55;;;;;;;;;;4999140;28;20026;-83
2022/12/08 13:29:03;;;;;;;2.60;1.98;;;;;;;;;;4981427;28;20402;-83
2022/12/08 13:31:45;;;;;;;4.45;2.85;;;;;;;;;;4981050;28;20440;-83
2022/12/08 13:34:20;;;;;;;4.28;2.40;;;;;;;;;;4999327;28;20030;-83
2022/12/08 13:36:55;;;;;;;3.90;2.22;;;;;;;;;;4999056;28;20030;-83
2022/12/08 13:39:29;;;;;;;3.55;2.30;;;;;;;;;;4999220;28;20089;-83
2022/12/08 13:42:05;;;;;;;3.55;2.20;;;;;;;;;;4999259;28;20030;-84
2022/12/08 13:44:45;;;;;;;3.47;2.30;;;;;;;;;;4981701;28;20065;-84
2022/12/08 13:47:14;;;;;;;3.88;2.10;;;;;;;;;;4998354;28;20034;-83
2022/12/08 13:50:01;;;;;;;3.40;2.13;;;;;;;;;;4998569;28;20030;-82
2022/12/08 13:52:39;;;;;;;3.35;2.15;;;;;;;;;;4999978;28;20076;-83
2022/12/08 13:55:13;;;;;;;5.95;2.30;;;;;;;;;;4999178;28;20116;-84
2022/12/08 13:57:39;;;;;;;3.45;2.40;;;;;;;;;;4998860;28;20041;-83
2022/12/08 14:00:16;;;;;;;3.25;2.00;;;;;;;;;;4981126;28;20027;-83
2022/12/08 14:02:44;;;;;;;5.90;2.17;;;;;;;;;;4982480;28;20026;-83
2022/12/08 14:05:10;;;;;;;4.25;2.50;;;;;;;;;;4999010;28;20026;-84
2022/12/08 14:07:38;;;;;;;7.25;2.40;;;;;;;;;;4998964;28;20502;-84
2022/12/08 14:10:08;;;;;;;4.35;2.30;;;;;;;;;;4998369;28;20097;-83
2022/12/08 14:12:34;;;;;;;6.22;2.38;;;;;;;;;;4998720;28;20069;-82
2022/12/08 14:15:03;;;;;;;5.50;3.30;;;;;;;;;;4980591;28;20511;-83
2022/12/08 14:17:32;;;;;;;7.15;3.80;;;;;;;;;;4980292;28;20138;-83
2022/12/08 14:20:01;;;;;;;5.20;3.38;;;;;;;;;;4997273;28;20021;-83
2022/12/08 14:22:35;;;;;;;4.00;2.25;;;;;;;;;;4998624;28;20026;-82
2022/12/08 14:25:01;;;;;;;4.28;2.42;;;;;;;;;;4981122;28;20050;-82
2022/12/08 14:27:32;;;;;;;4.75;2.70;;;;;;;;;;5002395;28;20118;-82
2022/12/08 14:30:01;;;;;;;4.45;2.85;;;;;;;;;;4984409;28;20026;-83
2022/12/08 14:32:49;;;;;;;4.18;2.50;;;;;;;;;;4984338;28;20030;-84
2022/12/08 14:35:25;;;;;;;3.58;2.40;;;;;;;;;;4984823;28;20443;-84
2022/12/08 14:38:17;;;;;;;5.00;2.13;;;;;;;;;;5001625;28;20026;-84
2022/12/08 14:40:45;;;;;;;8.82;2.70;;;;;;;;;;4984364;28;20431;-83
2022/12/08 14:43:13;;;;;;;4.75;2.80;;;;;;;;;;4985438;28;20030;-85
2022/12/08 14:45:38;;;;;;;5.38;2.60;;;;;;;;;;4986037;28;20022;-83
2022/12/08 14:48:26;;;;;;;5.57;2.78;;;;;;;;;;5001838;28;20157;-83
2022/12/08 14:51:20;;;;;;;8.95;2.80;;;;;;;;;;4984424;28;20103;-82
2022/12/08 14:53:51;;;;;;;8.68;3.13;;;;;;;;;;5001610;28;20045;-83
2022/12/08 14:56:27;;;;;;;5.63;2.50;;;;;;;;;;5002080;28;20550;-83
2022/12/08 14:59:16;;;;;;;4.22;2.58;;;;;;;;;;5002398;28;20105;-83
2022/12/08 15:01:42;;;;;;;5.90;2.83;;;;;;;;;;4984849;28;20442;-83
2022/12/08 15:04:11;;;;;;;5.53;3.03;;;;;;;;;;5001744;28;20057;-82
2022/12/08 15:06:36;;;;;;;7.63;2.90;;;;;;;;;;5002314;28;20129;-84
2022/12/08 15:09:14;;;;;;;5.80;2.67;;;;;;;;;;4984549;28;20050;-82